createdAt,value
2023-02-14T00:00:16.844Z,4.24
2023-02-14T00:06:13.880Z,4.34
2023-02-14T00:08:49.993Z,4.26
2023-02-14T00:11:26.780Z,4.67
2023-02-14T00:14:13.263Z,4.84
2023-02-14T00:16:40.846Z,4.87
2023-02-14T00:19:09.335Z,4.81
2023-02-14T00:21:38.483Z,4.76
2023-02-14T00:24:19.388Z,4.49
2023-02-14T00:26:57.408Z,4.31
2023-02-14T00:33:09.898Z,4.30
2023-02-14T00:35:51.281Z,4.61
2023-02-14T00:38:35.247Z,3.98
2023-02-14T00:44:05.293Z,4.05
2023-02-14T00:46:53.607Z,4.31
2023-02-14T00:49:48.032Z,4.81
2023-02-14T00:52:49.921Z,4.70
2023-02-14T00:55:22.570Z,4.78
2023-02-14T00:57:51.360Z,4.91
2023-02-14T01:00:19.029Z,4.58
2023-02-14T01:02:47.081Z,4.52
2023-02-14T01:05:14.559Z,4.72
2023-02-14T01:07:41.997Z,4.88
2023-02-14T01:10:11.515Z,4.71
2023-02-14T01:12:51.632Z,4.48
2023-02-14T01:15:36.986Z,4.03
2023-02-14T01:18:15.927Z,4.40
2023-02-14T01:20:50.437Z,4.54
2023-02-14T01:23:21.487Z,4.37
2023-02-14T01:26:05.802Z,4.55
2023-02-14T01:32:01.529Z,4.47
2023-02-14T01:34:42.526Z,3.89
2023-02-14T01:37:13.871Z,4.24
2023-02-14T01:39:49.335Z,4.04
2023-02-14T01:42:23.340Z,4.29
2023-02-14T01:45:01.949Z,4.21
2023-02-14T01:48:08.172Z,4.28
2023-02-14T01:50:57.001Z,4.16
2023-02-14T01:53:39.218Z,4.50
2023-02-14T01:56:21.754Z,3.87
2023-02-14T01:58:58.899Z,4.19
2023-02-14T02:01:34.688Z,4.02
2023-02-14T02:04:18.217Z,3.89
2023-02-14T02:07:00.307Z,4.05
2023-02-14T02:09:37.825Z,3.89
2023-02-14T02:12:20.178Z,4.20
2023-02-14T02:14:58.719Z,4.12
2023-02-14T02:17:59.160Z,4.50
2023-02-14T02:20:49.289Z,4.48
2023-02-14T02:27:18.624Z,3.62
2023-02-14T02:30:11.947Z,4.35
2023-02-14T02:33:19.335Z,4.31
2023-02-14T02:36:25.130Z,4.12
2023-02-14T02:39:05.882Z,4.14
2023-02-14T02:41:51.195Z,4.09
2023-02-14T02:44:36.027Z,4.04
2023-02-14T02:47:23.241Z,4.03
2023-02-14T02:50:24.779Z,3.36
2023-02-14T02:53:09.027Z,4.00
2023-02-14T02:56:17.332Z,4.07
2023-02-14T02:58:54.729Z,3.56
2023-02-14T03:01:40.785Z,3.73
2023-02-14T03:04:30.986Z,3.95
2023-02-14T03:07:01.375Z,4.09
2023-02-14T03:09:32.429Z,4.10
2023-02-14T03:12:17.887Z,3.83
2023-02-14T03:15:08.267Z,3.82
2023-02-14T03:17:47.601Z,3.84
2023-02-14T03:20:45.961Z,4.09
2023-02-14T03:23:24.933Z,3.60
2023-02-14T03:26:05.555Z,3.90
2023-02-14T03:28:53.164Z,3.31
2023-02-14T03:31:21.196Z,4.05
2023-02-14T03:34:32.329Z,3.79
2023-02-14T03:37:31.965Z,4.01
2023-02-14T03:40:36.701Z,3.77
2023-02-14T03:43:11.835Z,3.40
2023-02-14T03:45:53.092Z,3.57
2023-02-14T03:48:24.539Z,3.04
2023-02-14T03:50:56.344Z,3.52
2023-02-14T03:53:32.913Z,3.06
2023-02-14T03:56:23.365Z,3.94
2023-02-14T03:59:00.802Z,3.27
2023-02-14T04:01:42.194Z,3.26
2023-02-14T04:04:15.993Z,3.82
2023-02-14T04:06:48.377Z,3.28
2023-02-14T04:09:20.081Z,3.83
2023-02-14T04:11:51.480Z,3.35
2023-02-14T04:14:24.807Z,3.31
2023-02-14T04:17:16.963Z,3.60
2023-02-14T04:19:50.610Z,3.42
2023-02-14T04:22:22.748Z,3.44
2023-02-14T04:27:57.989Z,3.46
2023-02-14T04:33:50.262Z,3.45
2023-02-14T04:36:30.103Z,3.61
2023-02-14T04:39:05.998Z,3.38
2023-02-14T04:42:03.098Z,3.86
2023-02-14T04:44:39.543Z,3.13
2023-02-14T04:47:10.754Z,3.29
2023-02-14T04:49:43.726Z,3.18
2023-02-14T04:52:18.062Z,3.27
2023-02-14T04:54:49.392Z,3.66
2023-02-14T04:57:17.852Z,3.95
2023-02-14T04:59:45.406Z,4.03
2023-02-14T05:02:13.059Z,4.21
2023-02-14T05:04:40.637Z,4.22
2023-02-14T05:07:08.076Z,4.01
2023-02-14T05:09:35.512Z,4.28
2023-02-14T05:12:02.995Z,4.37
2023-02-14T05:14:30.288Z,4.38
2023-02-14T05:16:57.632Z,4.38
2023-02-14T05:19:24.846Z,4.40
2023-02-14T05:21:52.068Z,4.44
2023-02-14T05:24:19.515Z,4.30
2023-02-14T05:26:46.922Z,4.54
2023-02-14T05:29:14.286Z,4.44
2023-02-14T05:31:41.834Z,4.34
2023-02-14T05:34:09.163Z,4.48
2023-02-14T05:36:36.474Z,4.48
2023-02-14T05:39:04.773Z,4.50
2023-02-14T05:41:32.285Z,4.49
2023-02-14T05:43:59.480Z,4.48
2023-02-14T05:46:26.917Z,4.35
2023-02-14T05:48:54.268Z,4.54
2023-02-14T05:51:21.543Z,4.53
2023-02-14T05:53:48.813Z,4.58
2023-02-14T05:56:16.343Z,4.49
2023-02-14T05:58:44.189Z,4.56
2023-02-14T06:01:11.950Z,4.32
2023-02-14T06:03:39.321Z,3.96
2023-02-14T06:06:07.661Z,3.67
2023-02-14T06:08:39.576Z,3.11
2023-02-14T06:11:09.516Z,3.47
2023-02-14T06:13:41.355Z,3.59
2023-02-14T06:16:16.749Z,3.70
2023-02-14T06:18:59.720Z,3.74
2023-02-14T06:21:32.422Z,3.95
2023-02-14T06:24:00.805Z,4.29
2023-02-14T06:26:30.091Z,4.33
2023-02-14T06:29:02.634Z,3.69
2023-02-14T06:31:33.603Z,4.36
2023-02-14T06:34:07.863Z,3.97
2023-02-14T06:36:42.352Z,4.13
2023-02-14T06:39:18.095Z,4.30
2023-02-14T06:41:49.061Z,4.20
2023-02-14T06:44:21.625Z,4.21
2023-02-14T06:46:52.929Z,3.96
2023-02-14T06:49:24.189Z,4.09
2023-02-14T06:51:58.606Z,4.21
2023-02-14T06:54:29.999Z,4.91
2023-02-14T06:56:59.681Z,4.65
2023-02-14T06:59:33.776Z,5.21
2023-02-14T07:02:06.029Z,5.26
2023-02-14T07:04:36.269Z,4.91
2023-02-14T07:07:07.612Z,5.51
2023-02-14T07:09:38.796Z,5.55
2023-02-14T07:12:09.575Z,5.68
2023-02-14T07:14:38.308Z,5.50
2023-02-14T07:17:07.086Z,5.45
2023-02-14T07:19:42.199Z,5.49
2023-02-14T07:22:18.231Z,6.00
2023-02-14T07:24:48.203Z,5.71
2023-02-14T07:27:19.137Z,6.03
2023-02-14T07:29:47.461Z,5.83
2023-02-14T07:32:18.007Z,5.78
2023-02-14T07:34:49.192Z,6.12
2023-02-14T07:37:20.977Z,6.29
2023-02-14T07:39:54.403Z,6.48
2023-02-14T07:42:26.607Z,6.33
2023-02-14T07:44:57.634Z,6.88
2023-02-14T07:47:29.335Z,6.71
2023-02-14T07:49:59.898Z,6.25
2023-02-14T07:52:29.497Z,6.28
2023-02-14T07:57:41.960Z,6.86
2023-02-14T08:00:12.506Z,7.12
2023-02-14T08:05:39.600Z,6.78
2023-02-14T08:08:15.986Z,7.40
2023-02-14T08:10:43.713Z,7.16
2023-02-14T08:13:11.400Z,7.48
2023-02-14T08:15:59.206Z,7.32
2023-02-14T08:18:30.053Z,7.20
2023-02-14T08:21:00.362Z,6.88
2023-02-14T08:23:29.287Z,6.91
2023-02-14T08:25:58.726Z,7.45
2023-02-14T08:28:30.623Z,7.52
2023-02-14T08:31:02.533Z,7.31
2023-02-14T08:33:35.227Z,7.25
2023-02-14T08:36:05.367Z,7.74
2023-02-14T08:38:33.437Z,7.71
2023-02-14T08:41:05.224Z,7.32
2023-02-14T08:43:35.785Z,7.62
2023-02-14T08:46:03.973Z,7.98
2023-02-14T08:51:17.145Z,8.24
2023-02-14T08:53:47.354Z,8.06
2023-02-14T08:56:15.638Z,8.13
2023-02-14T08:58:42.972Z,7.83
2023-02-14T09:01:12.221Z,8.10
2023-02-14T09:03:42.129Z,8.23
2023-02-14T09:06:18.526Z,7.82
2023-02-14T09:08:46.906Z,8.02
2023-02-14T09:11:20.579Z,8.24
2023-02-14T09:13:51.781Z,8.05
2023-02-14T09:16:21.272Z,8.27
2023-02-14T09:18:50.559Z,8.44
2023-02-14T09:21:23.158Z,8.32
2023-02-14T09:23:50.651Z,8.08
2023-02-14T09:26:19.589Z,7.91
2023-02-14T09:28:47.490Z,8.37
2023-02-14T09:31:20.799Z,8.05
2023-02-14T09:33:52.954Z,8.43
2023-02-14T09:36:21.859Z,8.29
2023-02-14T09:38:49.789Z,8.47
2023-02-14T09:41:30.376Z,8.40
2023-02-14T09:44:25.425Z,7.70
2023-02-14T09:46:59.900Z,8.30
2023-02-14T09:49:34.717Z,8.25
2023-02-14T09:52:04.245Z,8.48
2023-02-14T09:54:35.639Z,8.33
2023-02-14T09:57:33.567Z,8.77
2023-02-14T10:00:07.340Z,8.87
2023-02-14T10:02:40.628Z,8.69
2023-02-14T10:05:23.480Z,8.68
2023-02-14T10:08:00.124Z,8.63
2023-02-14T10:10:44.620Z,8.77
2023-02-14T10:13:27.388Z,8.89
2023-02-14T10:16:06.073Z,9.06
2023-02-14T10:19:22.263Z,9.25
2023-02-14T10:22:04.012Z,8.99
2023-02-14T10:24:39.799Z,9.17
2023-02-14T10:27:26.718Z,9.45
2023-02-14T10:29:54.093Z,9.25
2023-02-14T10:32:38.167Z,9.13
2023-02-14T10:35:28.753Z,9.36
2023-02-14T10:38:08.450Z,9.29
2023-02-14T10:41:14.045Z,9.08
2023-02-14T10:44:00.962Z,9.33
2023-02-14T10:46:57.355Z,9.36
2023-02-14T10:49:51.501Z,9.39
2023-02-14T10:52:38.076Z,9.33
2023-02-14T10:55:32.393Z,9.43
2023-02-14T10:58:04.391Z,9.05
2023-02-14T11:00:38.011Z,9.22
2023-02-14T11:03:08.910Z,9.44
2023-02-14T11:05:43.781Z,9.10
2023-02-14T11:08:27.364Z,9.37
2023-02-14T11:11:19.180Z,9.60
2023-02-14T11:13:47.024Z,9.54
2023-02-14T11:16:41.004Z,9.65
2023-02-14T11:19:10.093Z,9.70
2023-02-14T11:21:40.133Z,9.59
2023-02-14T11:24:19.507Z,9.41
2023-02-14T11:26:50.078Z,9.46
2023-02-14T11:29:26.674Z,9.43
2023-02-14T11:31:54.963Z,9.51
2023-02-14T11:34:37.161Z,9.75
2023-02-14T11:37:28.449Z,9.84
2023-02-14T11:39:59.788Z,9.85
2023-02-14T11:42:43.553Z,9.75
2023-02-14T11:45:28.851Z,10.20
2023-02-14T11:48:37.097Z,9.86
2023-02-14T11:51:10.997Z,9.95
2023-02-14T11:53:56.175Z,9.84
2023-02-14T11:56:24.535Z,9.70
2023-02-14T11:58:58.326Z,9.69
2023-02-14T12:01:35.246Z,9.70
2023-02-14T12:04:15.369Z,9.53
2023-02-14T12:06:44.535Z,9.78
2023-02-14T12:09:23.937Z,9.98
2023-02-14T12:12:04.733Z,10.04
2023-02-14T12:14:36.084Z,10.27
2023-02-14T12:17:12.687Z,10.01
2023-02-14T12:20:13.013Z,9.97
2023-02-14T12:22:54.383Z,10.19
2023-02-14T12:25:48.594Z,10.29
2023-02-14T12:28:31.058Z,10.05
2023-02-14T12:30:58.947Z,9.78
2023-02-14T12:33:26.748Z,9.58
2023-02-14T12:36:09.270Z,9.75
2023-02-14T12:39:03.124Z,9.62
2023-02-14T12:41:40.584Z,9.37
2023-02-14T12:44:24.428Z,9.82
2023-02-14T12:47:11.344Z,9.96
2023-02-14T12:50:03.219Z,10.08
2023-02-14T12:52:53.179Z,10.10
2023-02-14T12:55:35.694Z,10.26
2023-02-14T12:58:11.236Z,9.92
2023-02-14T13:00:47.625Z,10.17
2023-02-14T13:03:39.480Z,10.10
2023-02-14T13:06:33.833Z,9.99
2023-02-14T13:09:19.590Z,10.10
2023-02-14T13:12:13.406Z,10.21
2023-02-14T13:15:14.451Z,10.12
2023-02-14T13:17:50.840Z,9.99
2023-02-14T13:20:39.801Z,9.83
2023-02-14T13:23:16.373Z,9.78
2023-02-14T13:26:22.411Z,9.82
2023-02-14T13:29:01.974Z,9.96
2023-02-14T13:31:29.534Z,9.89
2023-02-14T13:34:23.144Z,10.01
2023-02-14T13:36:51.109Z,9.97
2023-02-14T13:39:49.177Z,9.73
2023-02-14T13:42:48.040Z,9.69
2023-02-14T13:45:35.204Z,9.54
2023-02-14T13:48:13.156Z,9.26
2023-02-14T13:51:02.395Z,9.53
2023-02-14T13:53:42.584Z,9.42
2023-02-14T13:56:12.883Z,9.65
2023-02-14T13:58:53.359Z,9.69
2023-02-14T14:01:41.978Z,9.69
2023-02-14T14:04:31.947Z,9.76
2023-02-14T14:07:05.313Z,9.79
2023-02-14T14:09:44.608Z,9.72
2023-02-14T14:12:27.206Z,9.72
2023-02-14T14:15:06.889Z,9.67
2023-02-14T14:17:40.239Z,9.23
2023-02-14T14:20:16.924Z,9.52
2023-02-14T14:22:55.433Z,9.21
2023-02-14T14:25:41.187Z,9.37
2023-02-14T14:28:23.364Z,9.34
2023-02-14T14:30:51.716Z,9.27
2023-02-14T14:33:25.831Z,9.26
2023-02-14T14:36:03.019Z,9.03
2023-02-14T14:38:31.959Z,8.74
2023-02-14T14:41:01.288Z,9.09
2023-02-14T14:43:31.396Z,9.09
2023-02-14T14:46:02.663Z,9.00
2023-02-14T14:48:40.383Z,9.04
2023-02-14T14:51:15.258Z,9.03
2023-02-14T14:53:53.458Z,8.97
2023-02-14T14:56:27.532Z,8.94
2023-02-14T14:58:55.816Z,8.72
2023-02-14T15:01:37.593Z,8.27
2023-02-14T15:04:13.558Z,8.34
2023-02-14T15:06:42.714Z,8.11
2023-02-14T15:09:23.746Z,8.01
2023-02-14T15:12:13.318Z,7.94
2023-02-14T15:14:44.282Z,7.88
2023-02-14T15:17:22.549Z,7.77
2023-02-14T15:20:10.482Z,7.71
2023-02-14T15:22:46.139Z,7.97
2023-02-14T15:25:28.023Z,7.51
2023-02-14T15:27:59.067Z,7.77
2023-02-14T15:30:31.736Z,7.75
2023-02-14T15:33:02.756Z,7.68
2023-02-14T15:35:36.707Z,7.46
2023-02-14T15:38:07.240Z,7.66
2023-02-14T15:40:35.882Z,7.45
2023-02-14T15:43:24.664Z,7.47
2023-02-14T15:45:58.940Z,7.44
2023-02-14T15:48:30.898Z,7.43
2023-02-14T15:51:02.577Z,6.78
2023-02-14T15:53:44.566Z,7.28
2023-02-14T15:56:26.506Z,7.27
2023-02-14T15:59:29.875Z,7.27
2023-02-14T16:02:02.129Z,7.03
2023-02-14T16:04:34.440Z,7.11
2023-02-14T16:07:08.092Z,7.12
2023-02-14T16:09:36.825Z,6.78
2023-02-14T16:12:31.037Z,7.06
2023-02-14T16:15:22.314Z,6.42
2023-02-14T16:17:54.069Z,6.62
2023-02-14T16:20:27.066Z,6.93
2023-02-14T16:23:28.789Z,6.79
2023-02-14T16:26:05.016Z,6.76
2023-02-14T16:28:49.719Z,6.82
2023-02-14T16:31:21.099Z,5.93
2023-02-14T16:36:37.280Z,6.44
2023-02-14T16:39:06.461Z,6.16
2023-02-14T16:41:36.586Z,6.68
2023-02-14T16:44:13.044Z,5.76
2023-02-14T16:46:43.050Z,6.12
2023-02-14T16:49:10.645Z,6.30
2023-02-14T16:51:39.550Z,6.55
2023-02-14T16:54:08.874Z,6.41
2023-02-14T16:56:39.695Z,6.47
2023-02-14T16:59:07.335Z,6.00
2023-02-14T17:01:34.595Z,6.46
2023-02-14T17:04:01.815Z,6.37
2023-02-14T17:06:36.861Z,6.00
2023-02-14T17:09:09.974Z,6.02
2023-02-14T17:11:41.931Z,6.43
2023-02-14T17:14:12.995Z,5.93
2023-02-14T17:16:42.152Z,5.71
2023-02-14T17:19:11.384Z,5.95
2023-02-14T17:21:38.870Z,5.89
2023-02-14T17:24:06.281Z,6.27
2023-02-14T17:26:34.050Z,6.21
2023-02-14T17:29:01.360Z,6.10
2023-02-14T17:31:28.811Z,5.93
2023-02-14T17:33:56.292Z,6.05
2023-02-14T17:36:24.296Z,5.96
2023-02-14T17:38:53.536Z,5.89
2023-02-14T17:41:23.591Z,5.93
2023-02-14T17:43:53.139Z,5.57
2023-02-14T17:46:21.437Z,5.86
2023-02-14T17:48:49.716Z,5.75
2023-02-14T17:51:20.514Z,5.93
2023-02-14T17:53:49.138Z,5.81
2023-02-14T17:56:19.462Z,5.85
2023-02-14T17:58:48.569Z,5.93
2023-02-14T18:01:18.048Z,5.84
2023-02-14T18:03:45.989Z,5.94
2023-02-14T18:06:14.483Z,5.82
2023-02-14T18:08:49.884Z,5.74
2023-02-14T18:11:18.779Z,5.80
2023-02-14T18:13:46.616Z,5.42
2023-02-14T18:16:16.610Z,5.39
2023-02-14T18:18:44.510Z,4.98
2023-02-14T18:21:14.120Z,4.82
2023-02-14T18:23:41.734Z,5.18
2023-02-14T18:26:13.566Z,5.25
2023-02-14T18:28:42.377Z,4.89
2023-02-14T18:31:15.987Z,4.82
2023-02-14T18:33:43.982Z,5.03
2023-02-14T18:36:14.202Z,5.11
2023-02-14T18:38:43.016Z,5.34
2023-02-14T18:41:12.783Z,5.39
2023-02-14T18:43:44.667Z,5.36
2023-02-14T18:46:14.905Z,5.43
2023-02-14T18:48:42.564Z,4.83
2023-02-14T18:51:16.056Z,4.72
2023-02-14T18:53:44.923Z,5.00
2023-02-14T18:56:17.920Z,4.80
2023-02-14T18:58:48.254Z,4.47
2023-02-14T19:01:18.700Z,4.64
2023-02-14T19:03:46.161Z,5.03
2023-02-14T19:06:13.774Z,5.09
2023-02-14T19:08:41.153Z,5.24
2023-02-14T19:11:13.329Z,5.24
2023-02-14T19:13:45.544Z,5.26
2023-02-14T19:16:16.387Z,5.17
2023-02-14T19:18:43.659Z,4.99
2023-02-14T19:21:15.852Z,4.76
2023-02-14T19:23:43.990Z,4.93
2023-02-14T19:26:23.577Z,4.93
2023-02-14T19:28:55.946Z,4.91
2023-02-14T19:31:23.667Z,5.13
2023-02-14T19:33:51.744Z,5.18
2023-02-14T19:36:22.411Z,4.87
2023-02-14T19:41:36.807Z,4.94
2023-02-14T19:44:05.653Z,4.84
2023-02-14T19:46:33.403Z,4.64
2023-02-14T19:49:01.847Z,4.78
2023-02-14T19:51:36.199Z,4.75
2023-02-14T19:54:05.874Z,4.87
2023-02-14T19:56:41.527Z,4.79
2023-02-14T19:59:09.706Z,4.92
2023-02-14T20:01:43.393Z,4.95
2023-02-14T20:04:14.834Z,4.93
2023-02-14T20:06:43.073Z,4.87
2023-02-14T20:09:10.815Z,5.10
2023-02-14T20:11:46.710Z,5.17
2023-02-14T20:14:14.647Z,5.26
2023-02-14T20:16:41.920Z,5.23
2023-02-14T20:19:13.017Z,5.07
2023-02-14T20:21:59.412Z,5.08
2023-02-14T20:24:29.365Z,4.94
2023-02-14T20:26:56.927Z,5.00
2023-02-14T20:29:25.604Z,5.07
2023-02-14T20:31:55.643Z,5.00
2023-02-14T20:34:22.890Z,4.95
2023-02-14T20:36:53.302Z,4.85
2023-02-14T20:39:22.644Z,4.85
2023-02-14T20:41:50.424Z,5.11
2023-02-14T20:44:22.318Z,5.06
2023-02-14T20:46:51.945Z,5.10
2023-02-14T20:49:21.125Z,5.22
2023-02-14T20:51:52.600Z,5.26
2023-02-14T20:54:22.688Z,5.32
2023-02-14T20:56:50.967Z,5.41
2023-02-14T20:59:27.301Z,5.23
2023-02-14T21:01:56.882Z,5.44
2023-02-14T21:04:25.152Z,5.40
2023-02-14T21:06:52.519Z,5.37
2023-02-14T21:09:20.921Z,5.39
2023-02-14T21:11:48.180Z,5.46
2023-02-14T21:14:17.525Z,5.55
2023-02-14T21:16:45.021Z,5.39
2023-02-14T21:19:12.115Z,4.94
2023-02-14T21:21:39.840Z,4.97
2023-02-14T21:24:13.331Z,4.91
2023-02-14T21:26:41.584Z,5.08
2023-02-14T21:29:09.845Z,4.97
2023-02-14T21:31:37.923Z,4.95
2023-02-14T21:34:05.611Z,5.21
2023-02-14T21:36:37.206Z,4.96
2023-02-14T21:39:06.411Z,5.09
2023-02-14T21:41:34.514Z,5.15
2023-02-14T21:44:03.541Z,5.27
2023-02-14T21:46:38.719Z,4.97
2023-02-14T21:49:25.188Z,5.09
2023-02-14T21:51:52.685Z,5.29
2023-02-14T21:54:20.017Z,5.31
2023-02-14T21:56:49.347Z,5.40
2023-02-14T21:59:16.679Z,5.21
2023-02-14T22:01:43.885Z,5.14
2023-02-14T22:04:12.495Z,5.10
2023-02-14T22:06:41.983Z,4.99
2023-02-14T22:09:11.074Z,4.68
2023-02-14T22:11:38.495Z,4.24
2023-02-14T22:14:06.329Z,4.12
2023-02-14T22:16:33.855Z,3.87
2023-02-14T22:19:01.667Z,3.94
2023-02-14T22:21:31.233Z,3.98
2023-02-14T22:23:58.340Z,4.09
2023-02-14T22:26:28.217Z,4.25
2023-02-14T22:28:59.342Z,4.22
2023-02-14T22:31:30.759Z,4.10
2023-02-14T22:33:58.269Z,4.24
2023-02-14T22:36:25.671Z,4.16
2023-02-14T22:38:52.996Z,4.08
2023-02-14T22:41:22.802Z,4.10
2023-02-14T22:43:50.865Z,4.03
2023-02-14T22:46:23.847Z,3.93
2023-02-14T22:48:52.828Z,3.71
2023-02-14T22:51:26.642Z,3.91
2023-02-14T22:53:56.709Z,4.03
2023-02-14T22:56:38.936Z,4.02
2023-02-14T22:59:28.336Z,3.86
2023-02-14T23:01:56.010Z,3.86
2023-02-14T23:04:29.655Z,3.64
2023-02-14T23:06:57.337Z,3.77
2023-02-14T23:09:25.284Z,4.00
2023-02-14T23:11:52.802Z,3.87
2023-02-14T23:14:39.409Z,3.95
2023-02-14T23:17:19.105Z,3.74
2023-02-14T23:20:05.270Z,3.84
2023-02-14T23:22:33.793Z,3.83
2023-02-14T23:25:03.896Z,3.80
2023-02-14T23:27:38.830Z,3.85
2023-02-14T23:30:08.802Z,3.63
2023-02-14T23:32:36.365Z,3.85
2023-02-14T23:35:03.877Z,3.89
2023-02-14T23:37:31.253Z,3.46
2023-02-14T23:39:58.598Z,3.53
2023-02-14T23:42:26.105Z,3.39
2023-02-14T23:44:53.311Z,3.94
2023-02-14T23:47:20.614Z,3.69
2023-02-14T23:49:47.811Z,3.91
2023-02-14T23:52:15.077Z,3.99
2023-02-14T23:54:42.519Z,3.96
2023-02-14T23:57:09.954Z,3.61
2023-02-14T23:59:37.328Z,3.72
